sensor_id;sensor_type;location;lat;lon;timestamp;temperature;humidity
20081;DHT22;10200;49.232;9.222;2023-06-10T00:01:52;19.70;76.30
20081;DHT22;10200;49.232;9.222;2023-06-10T00:04:21;19.60;76.80
20081;DHT22;10200;49.232;9.222;2023-06-10T00:06:47;19.60;76.80
20081;DHT22;10200;49.232;9.222;2023-06-10T00:09:14;19.60;77.00
20081;DHT22;10200;49.232;9.222;2023-06-10T00:11:41;19.60;77.40
20081;DHT22;10200;49.232;9.222;2023-06-10T00:14:07;19.60;77.20
20081;DHT22;10200;49.232;9.222;2023-06-10T00:16:33;19.50;77.40
20081;DHT22;10200;49.232;9.222;2023-06-10T00:19:00;19.40;77.40
20081;DHT22;10200;49.232;9.222;2023-06-10T00:21:28;19.40;77.90
20081;DHT22;10200;49.232;9.222;2023-06-10T00:23:54;19.40;78.10
20081;DHT22;10200;49.232;9.222;2023-06-10T00:26:23;19.40;78.40
20081;DHT22;10200;49.232;9.222;2023-06-10T00:28:50;19.30;78.20
20081;DHT22;10200;49.232;9.222;2023-06-10T00:31:16;19.30;78.70
20081;DHT22;10200;49.232;9.222;2023-06-10T00:33:41;19.30;79.20
20081;DHT22;10200;49.232;9.222;2023-06-10T00:36:07;19.30;79.00
20081;DHT22;10200;49.232;9.222;2023-06-10T00:38:32;19.20;79.20
20081;DHT22;10200;49.232;9.222;2023-06-10T00:40:58;19.20;79.20
20081;DHT22;10200;49.232;9.222;2023-06-10T00:43:24;19.10;79.70
20081;DHT22;10200;49.232;9.222;2023-06-10T00:45:50;19.10;80.40
20081;DHT22;10200;49.232;9.222;2023-06-10T00:48:17;19.00;80.60
20081;DHT22;10200;49.232;9.222;2023-06-10T00:50:43;19.10;80.90
20081;DHT22;10200;49.232;9.222;2023-06-10T00:53:09;19.00;81.00
20081;DHT22;10200;49.232;9.222;2023-06-10T00:55:35;18.90;81.10
20081;DHT22;10200;49.232;9.222;2023-06-10T00:58:03;18.90;81.40
20081;DHT22;10200;49.232;9.222;2023-06-10T01:00:29;18.90;81.90
20081;DHT22;10200;49.232;9.222;2023-06-10T01:02:54;18.80;82.00
20081;DHT22;10200;49.232;9.222;2023-06-10T01:05:20;18.80;82.70
20081;DHT22;10200;49.232;9.222;2023-06-10T01:08:10;18.80;83.30
20081;DHT22;10200;49.232;9.222;2023-06-10T01:10:43;18.80;83.20
20081;DHT22;10200;49.232;9.222;2023-06-10T01:13:13;18.70;83.10
20081;DHT22;10200;49.232;9.222;2023-06-10T01:15:39;18.70;83.70
20081;DHT22;10200;49.232;9.222;2023-06-10T01:18:07;18.70;83.80
20081;DHT22;10200;49.232;9.222;2023-06-10T01:20:41;18.70;84.00
20081;DHT22;10200;49.232;9.222;2023-06-10T01:23:10;18.70;84.10
20081;DHT22;10200;49.232;9.222;2023-06-10T01:25:47;18.60;84.30
20081;DHT22;10200;49.232;9.222;2023-06-10T01:28:29;18.60;84.40
20081;DHT22;10200;49.232;9.222;2023-06-10T01:31:23;18.60;85.10
20081;DHT22;10200;49.232;9.222;2023-06-10T01:33:59;18.60;85.50
20081;DHT22;10200;49.232;9.222;2023-06-10T01:36:26;18.60;85.60
20081;DHT22;10200;49.232;9.222;2023-06-10T01:38:53;18.60;86.00
20081;DHT22;10200;49.232;9.222;2023-06-10T01:41:19;18.60;86.00
20081;DHT22;10200;49.232;9.222;2023-06-10T01:43:47;18.50;86.00
20081;DHT22;10200;49.232;9.222;2023-06-10T01:46:13;18.50;86.50
20081;DHT22;10200;49.232;9.222;2023-06-10T01:48:39;18.50;86.90
20081;DHT22;10200;49.232;9.222;2023-06-10T01:51:05;18.50;86.90
20081;DHT22;10200;49.232;9.222;2023-06-10T01:53:30;18.40;87.30
20081;DHT22;10200;49.232;9.222;2023-06-10T01:55:56;18.50;87.50
20081;DHT22;10200;49.232;9.222;2023-06-10T01:58:22;18.50;87.10
20081;DHT22;10200;49.232;9.222;2023-06-10T02:00:47;18.50;87.60
20081;DHT22;10200;49.232;9.222;2023-06-10T02:03:13;18.50;87.50
20081;DHT22;10200;49.232;9.222;2023-06-10T02:05:39;18.50;87.20
20081;DHT22;10200;49.232;9.222;2023-06-10T02:08:05;18.50;87.00
20081;DHT22;10200;49.232;9.222;2023-06-10T02:10:30;18.50;86.50
20081;DHT22;10200;49.232;9.222;2023-06-10T02:12:56;18.50;86.40
20081;DHT22;10200;49.232;9.222;2023-06-10T02:15:21;18.50;86.70
20081;DHT22;10200;49.232;9.222;2023-06-10T02:17:47;18.50;87.00
20081;DHT22;10200;49.232;9.222;2023-06-10T02:20:14;18.40;87.40
20081;DHT22;10200;49.232;9.222;2023-06-10T02:22:40;18.30;87.90
20081;DHT22;10200;49.232;9.222;2023-06-10T02:25:06;18.20;88.70
20081;DHT22;10200;49.232;9.222;2023-06-10T02:27:32;18.20;89.00
20081;DHT22;10200;49.232;9.222;2023-06-10T02:29:58;18.20;89.30
20081;DHT22;10200;49.232;9.222;2023-06-10T02:32:23;18.10;89.70
20081;DHT22;10200;49.232;9.222;2023-06-10T02:34:49;18.00;90.10
20081;DHT22;10200;49.232;9.222;2023-06-10T02:39:42;17.80;90.50
20081;DHT22;10200;49.232;9.222;2023-06-10T02:42:08;17.80;91.10
20081;DHT22;10200;49.232;9.222;2023-06-10T02:44:34;17.80;91.30
20081;DHT22;10200;49.232;9.222;2023-06-10T02:46:59;17.70;91.50
20081;DHT22;10200;49.232;9.222;2023-06-10T02:49:26;17.70;91.60
20081;DHT22;10200;49.232;9.222;2023-06-10T02:51:55;17.70;91.80
20081;DHT22;10200;49.232;9.222;2023-06-10T02:54:22;17.70;91.80
20081;DHT22;10200;49.232;9.222;2023-06-10T02:56:48;17.70;91.70
20081;DHT22;10200;49.232;9.222;2023-06-10T02:59:14;17.70;92.10
20081;DHT22;10200;49.232;9.222;2023-06-10T03:01:40;17.60;92.10
20081;DHT22;10200;49.232;9.222;2023-06-10T03:04:06;17.60;92.40
20081;DHT22;10200;49.232;9.222;2023-06-10T03:06:32;17.60;92.40
20081;DHT22;10200;49.232;9.222;2023-06-10T03:09:02;17.60;92.40
20081;DHT22;10200;49.232;9.222;2023-06-10T03:11:29;17.50;92.60
20081;DHT22;10200;49.232;9.222;2023-06-10T03:13:55;17.50;93.10
20081;DHT22;10200;49.232;9.222;2023-06-10T03:16:21;17.40;93.10
20081;DHT22;10200;49.232;9.222;2023-06-10T03:18:47;17.40;93.00
20081;DHT22;10200;49.232;9.222;2023-06-10T03:21:12;17.40;93.50
20081;DHT22;10200;49.232;9.222;2023-06-10T03:23:38;17.40;93.30
20081;DHT22;10200;49.232;9.222;2023-06-10T03:26:04;17.40;93.50
20081;DHT22;10200;49.232;9.222;2023-06-10T03:28:33;17.40;93.60
20081;DHT22;10200;49.232;9.222;2023-06-10T03:30:59;17.40;93.60
20081;DHT22;10200;49.232;9.222;2023-06-10T03:33:24;17.40;94.30
20081;DHT22;10200;49.232;9.222;2023-06-10T03:35:51;17.40;94.00
20081;DHT22;10200;49.232;9.222;2023-06-10T03:38:17;17.40;93.90
20081;DHT22;10200;49.232;9.222;2023-06-10T03:40:42;17.40;94.10
20081;DHT22;10200;49.232;9.222;2023-06-10T03:43:08;17.40;94.30
20081;DHT22;10200;49.232;9.222;2023-06-10T03:45:34;17.40;94.40
20081;DHT22;10200;49.232;9.222;2023-06-10T03:48:00;17.40;94.30
20081;DHT22;10200;49.232;9.222;2023-06-10T03:50:26;17.40;94.50
20081;DHT22;10200;49.232;9.222;2023-06-10T03:52:52;17.50;94.60
20081;DHT22;10200;49.232;9.222;2023-06-10T03:55:17;17.50;94.50
20081;DHT22;10200;49.232;9.222;2023-06-10T03:57:43;17.50;94.60
20081;DHT22;10200;49.232;9.222;2023-06-10T04:00:10;17.40;94.40
20081;DHT22;10200;49.232;9.222;2023-06-10T04:02:37;17.50;94.50
20081;DHT22;10200;49.232;9.222;2023-06-10T04:05:03;17.50;94.40
20081;DHT22;10200;49.232;9.222;2023-06-10T04:07:29;17.50;94.50
20081;DHT22;10200;49.232;9.222;2023-06-10T04:09:56;17.50;95.00
20081;DHT22;10200;49.232;9.222;2023-06-10T04:12:21;17.50;95.30
20081;DHT22;10200;49.232;9.222;2023-06-10T04:14:47;17.60;95.80
20081;DHT22;10200;49.232;9.222;2023-06-10T04:17:12;17.60;95.70
20081;DHT22;10200;49.232;9.222;2023-06-10T04:19:38;17.70;95.80
20081;DHT22;10200;49.232;9.222;2023-06-10T04:22:04;17.70;95.80
20081;DHT22;10200;49.232;9.222;2023-06-10T04:24:30;17.80;95.40
20081;DHT22;10200;49.232;9.222;2023-06-10T04:26:56;17.90;95.30
20081;DHT22;10200;49.232;9.222;2023-06-10T04:29:22;18.00;94.80
20081;DHT22;10200;49.232;9.222;2023-06-10T04:31:47;18.10;94.40
20081;DHT22;10200;49.232;9.222;2023-06-10T04:34:14;18.20;93.90
20081;DHT22;10200;49.232;9.222;2023-06-10T04:36:39;18.30;93.70
20081;DHT22;10200;49.232;9.222;2023-06-10T04:39:05;18.50;93.40
20081;DHT22;10200;49.232;9.222;2023-06-10T04:41:31;18.80;93.30
20081;DHT22;10200;49.232;9.222;2023-06-10T04:43:57;19.40;92.80
20081;DHT22;10200;49.232;9.222;2023-06-10T04:46:23;20.60;91.90
20081;DHT22;10200;49.232;9.222;2023-06-10T04:48:49;21.90;85.80
20081;DHT22;10200;49.232;9.222;2023-06-10T04:51:15;22.70;78.80
20081;DHT22;10200;49.232;9.222;2023-06-10T04:53:41;23.20;72.90
20081;DHT22;10200;49.232;9.222;2023-06-10T04:56:07;23.50;71.00
20081;DHT22;10200;49.232;9.222;2023-06-10T04:58:33;23.60;68.60
20081;DHT22;10200;49.232;9.222;2023-06-10T05:00:59;23.60;67.20
20081;DHT22;10200;49.232;9.222;2023-06-10T05:03:25;23.50;66.20
20081;DHT22;10200;49.232;9.222;2023-06-10T05:05:51;23.30;66.00
20081;DHT22;10200;49.232;9.222;2023-06-10T05:08:16;23.10;65.50
20081;DHT22;10200;49.232;9.222;2023-06-10T05:10:42;23.00;65.70
20081;DHT22;10200;49.232;9.222;2023-06-10T05:13:07;22.80;66.30
20081;DHT22;10200;49.232;9.222;2023-06-10T05:15:36;22.80;66.90
20081;DHT22;10200;49.232;9.222;2023-06-10T05:18:02;22.70;67.20
20081;DHT22;10200;49.232;9.222;2023-06-10T05:20:28;22.60;66.50
20081;DHT22;10200;49.232;9.222;2023-06-10T05:22:54;22.50;66.30
20081;DHT22;10200;49.232;9.222;2023-06-10T05:25:20;22.50;67.70
20081;DHT22;10200;49.232;9.222;2023-06-10T05:27:46;22.60;68.00
20081;DHT22;10200;49.232;9.222;2023-06-10T05:30:11;22.60;67.60
20081;DHT22;10200;49.232;9.222;2023-06-10T05:32:37;22.70;67.40
20081;DHT22;10200;49.232;9.222;2023-06-10T05:35:03;22.80;67.40
20081;DHT22;10200;49.232;9.222;2023-06-10T05:37:30;22.90;67.00
20081;DHT22;10200;49.232;9.222;2023-06-10T05:39:55;23.10;66.20
20081;DHT22;10200;49.232;9.222;2023-06-10T05:42:21;23.20;65.70
20081;DHT22;10200;49.232;9.222;2023-06-10T05:44:46;23.30;65.20
20081;DHT22;10200;49.232;9.222;2023-06-10T05:47:12;23.50;64.90
20081;DHT22;10200;49.232;9.222;2023-06-10T05:49:38;23.60;63.80
20081;DHT22;10200;49.232;9.222;2023-06-10T05:52:03;23.70;64.70
20081;DHT22;10200;49.232;9.222;2023-06-10T05:54:29;23.90;64.70
20081;DHT22;10200;49.232;9.222;2023-06-10T05:56:55;24.10;63.20
20081;DHT22;10200;49.232;9.222;2023-06-10T05:59:20;24.20;62.00
20081;DHT22;10200;49.232;9.222;2023-06-10T06:01:48;24.40;63.40
20081;DHT22;10200;49.232;9.222;2023-06-10T06:04:14;24.60;62.70
20081;DHT22;10200;49.232;9.222;2023-06-10T06:06:39;24.70;62.00
20081;DHT22;10200;49.232;9.222;2023-06-10T06:09:05;25.10;61.20
20081;DHT22;10200;49.232;9.222;2023-06-10T06:11:31;25.30;60.20
20081;DHT22;10200;49.232;9.222;2023-06-10T06:13:57;25.50;59.90
20081;DHT22;10200;49.232;9.222;2023-06-10T06:16:23;25.70;59.40
20081;DHT22;10200;49.232;9.222;2023-06-10T06:18:48;25.90;58.70
20081;DHT22;10200;49.232;9.222;2023-06-10T06:21:14;26.50;57.30
20081;DHT22;10200;49.232;9.222;2023-06-10T06:23:40;26.50;57.70
20081;DHT22;10200;49.232;9.222;2023-06-10T06:26:05;26.60;57.00
20081;DHT22;10200;49.232;9.222;2023-06-10T06:28:31;26.80;56.70
20081;DHT22;10200;49.232;9.222;2023-06-10T06:30:57;26.90;56.40
20081;DHT22;10200;49.232;9.222;2023-06-10T06:33:22;27.20;55.90
20081;DHT22;10200;49.232;9.222;2023-06-10T06:35:48;27.40;55.30
20081;DHT22;10200;49.232;9.222;2023-06-10T06:38:14;27.60;55.10
20081;DHT22;10200;49.232;9.222;2023-06-10T06:40:40;27.90;54.90
20081;DHT22;10200;49.232;9.222;2023-06-10T06:43:05;28.10;53.70
20081;DHT22;10200;49.232;9.222;2023-06-10T06:45:31;28.20;53.00
20081;DHT22;10200;49.232;9.222;2023-06-10T06:47:59;28.30;52.30
20081;DHT22;10200;49.232;9.222;2023-06-10T06:50:25;28.40;52.60
20081;DHT22;10200;49.232;9.222;2023-06-10T06:52:50;28.70;52.80
20081;DHT22;10200;49.232;9.222;2023-06-10T06:55:16;28.90;53.20
20081;DHT22;10200;49.232;9.222;2023-06-10T06:57:41;29.20;52.10
20081;DHT22;10200;49.232;9.222;2023-06-10T07:00:07;29.20;51.50
20081;DHT22;10200;49.232;9.222;2023-06-10T07:02:35;29.20;50.30
20081;DHT22;10200;49.232;9.222;2023-06-10T07:05:00;29.00;50.00
20081;DHT22;10200;49.232;9.222;2023-06-10T07:07:26;28.90;51.30
20081;DHT22;10200;49.232;9.222;2023-06-10T07:09:52;28.90;51.50
20081;DHT22;10200;49.232;9.222;2023-06-10T07:12:18;29.00;51.80
20081;DHT22;10200;49.232;9.222;2023-06-10T07:14:44;29.10;51.80
20081;DHT22;10200;49.232;9.222;2023-06-10T07:17:09;29.30;51.90
20081;DHT22;10200;49.232;9.222;2023-06-10T07:19:35;29.50;51.10
20081;DHT22;10200;49.232;9.222;2023-06-10T07:22:01;29.80;50.90
20081;DHT22;10200;49.232;9.222;2023-06-10T07:24:26;30.10;50.10
20081;DHT22;10200;49.232;9.222;2023-06-10T07:26:52;30.20;49.50
20081;DHT22;10200;49.232;9.222;2023-06-10T07:29:17;30.30;49.40
20081;DHT22;10200;49.232;9.222;2023-06-10T07:31:43;30.30;49.10
20081;DHT22;10200;49.232;9.222;2023-06-10T07:34:08;30.50;49.00
20081;DHT22;10200;49.232;9.222;2023-06-10T07:36:34;30.40;48.20
20081;DHT22;10200;49.232;9.222;2023-06-10T07:39:00;30.40;49.00
20081;DHT22;10200;49.232;9.222;2023-06-10T07:41:25;30.40;48.40
20081;DHT22;10200;49.232;9.222;2023-06-10T07:43:54;30.20;48.70
20081;DHT22;10200;49.232;9.222;2023-06-10T07:46:23;30.20;49.80
20081;DHT22;10200;49.232;9.222;2023-06-10T07:48:48;30.40;49.40
20081;DHT22;10200;49.232;9.222;2023-06-10T07:51:17;30.30;48.60
20081;DHT22;10200;49.232;9.222;2023-06-10T07:53:43;30.10;48.70
20081;DHT22;10200;49.232;9.222;2023-06-10T07:56:08;30.10;48.80
20081;DHT22;10200;49.232;9.222;2023-06-10T07:58:34;30.20;49.70
20081;DHT22;10200;49.232;9.222;2023-06-10T08:00:59;30.40;48.30
20081;DHT22;10200;49.232;9.222;2023-06-10T08:03:25;30.40;48.80
20081;DHT22;10200;49.232;9.222;2023-06-10T08:05:50;30.30;48.30
20081;DHT22;10200;49.232;9.222;2023-06-10T08:08:16;30.60;49.10
20081;DHT22;10200;49.232;9.222;2023-06-10T08:10:42;30.60;48.30
20081;DHT22;10200;49.232;9.222;2023-06-10T08:13:08;30.90;48.30
20081;DHT22;10200;49.232;9.222;2023-06-10T08:15:34;30.90;47.80
20081;DHT22;10200;49.232;9.222;2023-06-10T08:17:59;30.90;48.50
20081;DHT22;10200;49.232;9.222;2023-06-10T08:22:51;31.20;47.40
20081;DHT22;10200;49.232;9.222;2023-06-10T08:25:17;31.30;47.10
20081;DHT22;10200;49.232;9.222;2023-06-10T08:27:42;31.20;48.20
20081;DHT22;10200;49.232;9.222;2023-06-10T08:30:08;31.40;47.70
20081;DHT22;10200;49.232;9.222;2023-06-10T08:32:36;31.50;47.50
20081;DHT22;10200;49.232;9.222;2023-06-10T08:35:02;31.70;47.00
20081;DHT22;10200;49.232;9.222;2023-06-10T08:37:29;31.70;47.20
20081;DHT22;10200;49.232;9.222;2023-06-10T08:39:54;31.80;47.40
20081;DHT22;10200;49.232;9.222;2023-06-10T08:44:46;31.80;45.20
20081;DHT22;10200;49.232;9.222;2023-06-10T08:47:16;32.00;47.00
20081;DHT22;10200;49.232;9.222;2023-06-10T08:49:47;32.40;45.80
20081;DHT22;10200;49.232;9.222;2023-06-10T08:52:17;32.80;45.30
20081;DHT22;10200;49.232;9.222;2023-06-10T08:54:56;32.90;46.00
20081;DHT22;10200;49.232;9.222;2023-06-10T08:57:22;33.20;45.10
20081;DHT22;10200;49.232;9.222;2023-06-10T08:59:48;33.20;44.70
20081;DHT22;10200;49.232;9.222;2023-06-10T09:02:15;33.60;44.30
20081;DHT22;10200;49.232;9.222;2023-06-10T09:04:44;33.70;43.40
20081;DHT22;10200;49.232;9.222;2023-06-10T09:07:11;33.90;43.00
20081;DHT22;10200;49.232;9.222;2023-06-10T09:09:37;33.80;42.10
20081;DHT22;10200;49.232;9.222;2023-06-10T09:12:04;33.50;42.30
20081;DHT22;10200;49.232;9.222;2023-06-10T09:14:30;33.60;43.10
20081;DHT22;10200;49.232;9.222;2023-06-10T09:16:55;33.70;42.00
20081;DHT22;10200;49.232;9.222;2023-06-10T09:19:25;33.50;41.70
20081;DHT22;10200;49.232;9.222;2023-06-10T09:21:52;33.50;41.90
20081;DHT22;10200;49.232;9.222;2023-06-10T09:24:18;33.40;40.80
20081;DHT22;10200;49.232;9.222;2023-06-10T09:26:43;33.30;41.90
20081;DHT22;10200;49.232;9.222;2023-06-10T09:29:11;33.20;42.00
20081;DHT22;10200;49.232;9.222;2023-06-10T09:31:38;33.40;42.10
20081;DHT22;10200;49.232;9.222;2023-06-10T09:34:12;33.40;41.60
20081;DHT22;10200;49.232;9.222;2023-06-10T09:36:39;33.40;40.20
20081;DHT22;10200;49.232;9.222;2023-06-10T09:39:05;33.40;40.60
20081;DHT22;10200;49.232;9.222;2023-06-10T09:41:41;33.40;41.90
20081;DHT22;10200;49.232;9.222;2023-06-10T09:44:33;33.50;41.40
20081;DHT22;10200;49.232;9.222;2023-06-10T09:46:58;33.50;41.10
20081;DHT22;10200;49.232;9.222;2023-06-10T09:49:28;33.70;40.80
20081;DHT22;10200;49.232;9.222;2023-06-10T09:51:55;33.80;40.70
20081;DHT22;10200;49.232;9.222;2023-06-10T09:54:21;34.00;39.80
20081;DHT22;10200;49.232;9.222;2023-06-10T09:56:48;34.20;40.00
20081;DHT22;10200;49.232;9.222;2023-06-10T09:59:14;34.20;39.60
20081;DHT22;10200;49.232;9.222;2023-06-10T10:01:40;34.40;39.80
20081;DHT22;10200;49.232;9.222;2023-06-10T10:04:05;34.40;38.40
20081;DHT22;10200;49.232;9.222;2023-06-10T10:06:31;34.00;38.10
20081;DHT22;10200;49.232;9.222;2023-06-10T10:08:57;33.60;39.50
20081;DHT22;10200;49.232;9.222;2023-06-10T10:11:24;33.40;39.80
20081;DHT22;10200;49.232;9.222;2023-06-10T10:13:51;33.20;40.90
20081;DHT22;10200;49.232;9.222;2023-06-10T10:16:20;33.10;41.50
20081;DHT22;10200;49.232;9.222;2023-06-10T10:18:53;33.30;40.50
20081;DHT22;10200;49.232;9.222;2023-06-10T10:21:23;33.00;39.00
20081;DHT22;10200;49.232;9.222;2023-06-10T10:26:50;32.80;40.70
20081;DHT22;10200;49.232;9.222;2023-06-10T10:29:24;32.90;41.60
20081;DHT22;10200;49.232;9.222;2023-06-10T10:31:56;33.10;42.00
20081;DHT22;10200;49.232;9.222;2023-06-10T10:34:30;33.00;40.60
20081;DHT22;10200;49.232;9.222;2023-06-10T10:37:00;33.20;42.00
20081;DHT22;10200;49.232;9.222;2023-06-10T10:39:26;33.00;39.50
20081;DHT22;10200;49.232;9.222;2023-06-10T10:41:54;33.20;40.20
20081;DHT22;10200;49.232;9.222;2023-06-10T10:44:21;33.30;40.40
20081;DHT22;10200;49.232;9.222;2023-06-10T10:46:50;33.10;38.50
20081;DHT22;10200;49.232;9.222;2023-06-10T10:49:18;33.00;39.60
20081;DHT22;10200;49.232;9.222;2023-06-10T10:51:57;33.00;40.00
20081;DHT22;10200;49.232;9.222;2023-06-10T10:54:43;32.80;39.20
20081;DHT22;10200;49.232;9.222;2023-06-10T10:59:52;32.90;40.10
20081;DHT22;10200;49.232;9.222;2023-06-10T11:02:37;32.90;39.40
20081;DHT22;10200;49.232;9.222;2023-06-10T11:05:06;32.80;40.60
20081;DHT22;10200;49.232;9.222;2023-06-10T11:07:33;32.90;40.60
20081;DHT22;10200;49.232;9.222;2023-06-10T11:10:10;32.80;39.90
20081;DHT22;10200;49.232;9.222;2023-06-10T11:15:14;32.60;41.10
20081;DHT22;10200;49.232;9.222;2023-06-10T11:18:08;32.60;41.50
20081;DHT22;10200;49.232;9.222;2023-06-10T11:31:19;32.90;42.00
20081;DHT22;10200;49.232;9.222;2023-06-10T11:33:47;33.00;42.00
20081;DHT22;10200;49.232;9.222;2023-06-10T11:36:13;32.80;40.80
20081;DHT22;10200;49.232;9.222;2023-06-10T11:38:40;32.70;41.10
20081;DHT22;10200;49.232;9.222;2023-06-10T11:41:06;32.80;41.50
20081;DHT22;10200;49.232;9.222;2023-06-10T11:43:33;32.90;40.70
20081;DHT22;10200;49.232;9.222;2023-06-10T11:45:59;32.80;40.80
20081;DHT22;10200;49.232;9.222;2023-06-10T11:48:25;32.70;41.80
20081;DHT22;10200;49.232;9.222;2023-06-10T11:50:53;32.50;41.40
20081;DHT22;10200;49.232;9.222;2023-06-10T11:53:19;32.50;42.10
20081;DHT22;10200;49.232;9.222;2023-06-10T11:55:47;32.60;42.10
20081;DHT22;10200;49.232;9.222;2023-06-10T11:58:22;32.60;40.90
20081;DHT22;10200;49.232;9.222;2023-06-10T12:00:49;32.60;40.50
20081;DHT22;10200;49.232;9.222;2023-06-10T12:03:15;32.80;40.00
20081;DHT22;10200;49.232;9.222;2023-06-10T12:06:01;32.70;39.60
20081;DHT22;10200;49.232;9.222;2023-06-10T12:08:27;32.60;40.30
20081;DHT22;10200;49.232;9.222;2023-06-10T12:10:53;32.30;39.50
20081;DHT22;10200;49.232;9.222;2023-06-10T12:13:19;31.80;39.70
20081;DHT22;10200;49.232;9.222;2023-06-10T12:15:46;31.60;40.70
20081;DHT22;10200;49.232;9.222;2023-06-10T12:18:19;31.60;40.80
20081;DHT22;10200;49.232;9.222;2023-06-10T12:20:46;31.70;40.80
20081;DHT22;10200;49.232;9.222;2023-06-10T12:23:13;31.70;40.20
20081;DHT22;10200;49.232;9.222;2023-06-10T12:25:39;31.80;41.90
20081;DHT22;10200;49.232;9.222;2023-06-10T12:28:05;32.00;41.20
20081;DHT22;10200;49.232;9.222;2023-06-10T12:30:32;32.20;40.30
20081;DHT22;10200;49.232;9.222;2023-06-10T12:32:58;32.20;40.40
20081;DHT22;10200;49.232;9.222;2023-06-10T12:35:27;32.30;41.20
20081;DHT22;10200;49.232;9.222;2023-06-10T12:38:01;32.30;40.10
20081;DHT22;10200;49.232;9.222;2023-06-10T12:40:29;32.30;40.30
20081;DHT22;10200;49.232;9.222;2023-06-10T12:42:55;32.20;40.00
20081;DHT22;10200;49.232;9.222;2023-06-10T12:45:37;32.00;40.40
20081;DHT22;10200;49.232;9.222;2023-06-10T12:48:16;31.70;40.30
20081;DHT22;10200;49.232;9.222;2023-06-10T12:50:43;31.40;41.00
20081;DHT22;10200;49.232;9.222;2023-06-10T12:53:10;31.20;42.40
20081;DHT22;10200;49.232;9.222;2023-06-10T12:55:39;31.30;42.50
20081;DHT22;10200;49.232;9.222;2023-06-10T12:58:04;31.50;42.90
20081;DHT22;10200;49.232;9.222;2023-06-10T13:00:31;31.70;42.00
20081;DHT22;10200;49.232;9.222;2023-06-10T13:02:59;31.90;41.40
20081;DHT22;10200;49.232;9.222;2023-06-10T13:05:26;31.90;40.60
20081;DHT22;10200;49.232;9.222;2023-06-10T13:07:52;32.00;40.30
20081;DHT22;10200;49.232;9.222;2023-06-10T13:10:18;32.00;41.00
20081;DHT22;10200;49.232;9.222;2023-06-10T13:12:44;32.00;40.70
20081;DHT22;10200;49.232;9.222;2023-06-10T13:15:10;32.10;40.50
20081;DHT22;10200;49.232;9.222;2023-06-10T13:17:37;32.00;40.70
20081;DHT22;10200;49.232;9.222;2023-06-10T13:20:04;32.10;40.50
20081;DHT22;10200;49.232;9.222;2023-06-10T13:22:33;32.10;40.30
20081;DHT22;10200;49.232;9.222;2023-06-10T13:25:03;32.20;40.10
20081;DHT22;10200;49.232;9.222;2023-06-10T13:27:29;32.30;39.80
20081;DHT22;10200;49.232;9.222;2023-06-10T13:29:55;32.40;40.10
20081;DHT22;10200;49.232;9.222;2023-06-10T13:32:21;32.40;39.90
20081;DHT22;10200;49.232;9.222;2023-06-10T13:34:47;32.40;39.70
20081;DHT22;10200;49.232;9.222;2023-06-10T13:37:15;32.50;39.70
20081;DHT22;10200;49.232;9.222;2023-06-10T13:39:42;32.30;39.00
20081;DHT22;10200;49.232;9.222;2023-06-10T13:42:08;32.30;38.70
20081;DHT22;10200;49.232;9.222;2023-06-10T13:44:34;32.20;39.20
20081;DHT22;10200;49.232;9.222;2023-06-10T13:47:02;32.10;38.70
20081;DHT22;10200;49.232;9.222;2023-06-10T13:49:28;31.90;39.50
20081;DHT22;10200;49.232;9.222;2023-06-10T13:51:54;32.00;39.60
20081;DHT22;10200;49.232;9.222;2023-06-10T13:54:19;32.00;39.40
20081;DHT22;10200;49.232;9.222;2023-06-10T13:56:46;32.00;39.70
20081;DHT22;10200;49.232;9.222;2023-06-10T13:59:12;32.20;39.70
20081;DHT22;10200;49.232;9.222;2023-06-10T14:01:37;32.20;40.30
20081;DHT22;10200;49.232;9.222;2023-06-10T14:04:04;32.30;39.40
20081;DHT22;10200;49.232;9.222;2023-06-10T14:06:29;32.10;39.50
20081;DHT22;10200;49.232;9.222;2023-06-10T14:08:56;32.00;40.10
20081;DHT22;10200;49.232;9.222;2023-06-10T14:11:21;32.00;40.60
20081;DHT22;10200;49.232;9.222;2023-06-10T14:13:47;32.00;40.10
20081;DHT22;10200;49.232;9.222;2023-06-10T14:16:13;31.90;40.10
20081;DHT22;10200;49.232;9.222;2023-06-10T14:18:38;31.80;40.20
20081;DHT22;10200;49.232;9.222;2023-06-10T14:21:04;31.80;40.20
20081;DHT22;10200;49.232;9.222;2023-06-10T14:23:30;31.60;40.60
20081;DHT22;10200;49.232;9.222;2023-06-10T14:25:55;31.40;40.60
20081;DHT22;10200;49.232;9.222;2023-06-10T14:28:21;31.40;41.00
20081;DHT22;10200;49.232;9.222;2023-06-10T14:30:47;31.40;40.30
20081;DHT22;10200;49.232;9.222;2023-06-10T14:33:12;31.60;41.00
20081;DHT22;10200;49.232;9.222;2023-06-10T14:35:38;31.70;40.80
20081;DHT22;10200;49.232;9.222;2023-06-10T14:38:04;31.60;40.70
20081;DHT22;10200;49.232;9.222;2023-06-10T14:40:29;31.60;41.00
20081;DHT22;10200;49.232;9.222;2023-06-10T14:42:57;31.60;41.10
20081;DHT22;10200;49.232;9.222;2023-06-10T14:45:22;31.70;40.60
20081;DHT22;10200;49.232;9.222;2023-06-10T14:47:48;31.70;40.90
20081;DHT22;10200;49.232;9.222;2023-06-10T14:50:14;31.70;41.10
20081;DHT22;10200;49.232;9.222;2023-06-10T14:52:40;31.60;40.10
20081;DHT22;10200;49.232;9.222;2023-06-10T14:55:06;31.60;40.00
20081;DHT22;10200;49.232;9.222;2023-06-10T14:57:31;31.50;40.20
20081;DHT22;10200;49.232;9.222;2023-06-10T14:59:57;31.60;40.10
20081;DHT22;10200;49.232;9.222;2023-06-10T15:02:23;31.50;40.20
20081;DHT22;10200;49.232;9.222;2023-06-10T15:04:49;31.60;41.10
20081;DHT22;10200;49.232;9.222;2023-06-10T15:07:14;31.70;41.70
20081;DHT22;10200;49.232;9.222;2023-06-10T15:09:41;31.70;41.80
20081;DHT22;10200;49.232;9.222;2023-06-10T15:12:07;31.60;41.10
20081;DHT22;10200;49.232;9.222;2023-06-10T15:14:33;31.60;40.90
20081;DHT22;10200;49.232;9.222;2023-06-10T15:16:59;31.50;40.00
20081;DHT22;10200;49.232;9.222;2023-06-10T15:19:26;31.40;39.90
20081;DHT22;10200;49.232;9.222;2023-06-10T15:21:52;31.30;40.50
20081;DHT22;10200;49.232;9.222;2023-06-10T15:24:18;31.30;40.20
20081;DHT22;10200;49.232;9.222;2023-06-10T15:26:44;31.30;40.50
20081;DHT22;10200;49.232;9.222;2023-06-10T15:29:09;31.40;40.30
20081;DHT22;10200;49.232;9.222;2023-06-10T15:31:35;31.50;41.20
20081;DHT22;10200;49.232;9.222;2023-06-10T15:34:01;31.60;41.50
20081;DHT22;10200;49.232;9.222;2023-06-10T15:36:27;31.60;41.30
20081;DHT22;10200;49.232;9.222;2023-06-10T15:38:54;31.70;41.80
20081;DHT22;10200;49.232;9.222;2023-06-10T15:41:20;31.70;41.50
20081;DHT22;10200;49.232;9.222;2023-06-10T15:43:46;31.80;41.60
20081;DHT22;10200;49.232;9.222;2023-06-10T15:46:12;31.70;41.30
20081;DHT22;10200;49.232;9.222;2023-06-10T15:48:37;31.60;41.40
20081;DHT22;10200;49.232;9.222;2023-06-10T15:51:03;31.50;41.70
20081;DHT22;10200;49.232;9.222;2023-06-10T15:53:28;31.40;42.10
20081;DHT22;10200;49.232;9.222;2023-06-10T15:55:54;31.30;42.30